pilax at pilax.com
2018/12/18 12:30 LFRD 181230Z AUTO 17017KT CAVOK 09/05 Q1007 BECMG 16016G28KT RA BKN015

2018/12/18 12:30 LFRN 181230Z AUTO 17014KT CAVOK 09/05 Q1009 BECMG 16015G25KT RA

2018/12/18 12:30 LFRB 181230Z AUTO 18020G32KT 7000 RA BKN009/// OVC014/// ///TCU 10/09 Q1003 BECMG SCT012TCU OVC042

2018/12/18 12:30 LFRH 181230Z AUTO 17018KT 7000 -RA BKN033/// OVC039/// ///TCU 11/08 Q1006 TEMPO 3000 RA BKN010 BKN012TCU OVC015 BECMG 17020G30KT

IPv6 Certification Badge for pilax